RYR23F EETN-EGCC
Flight info
| Callsign | RYR23F |
|---|---|
| Flight time | N/A |
| Altitude | 38000 |
| Route | OSMUR DCT NEBSI DCT ROGMI DCT RISMA DCT LME DCT DIV DCT LIBSO |
| Aircraft | B738/M-SDE2E3FGHIRWXY/LB1 |
Departure
| Time | 2026-04-29 18:15 |
|---|---|
| Airport | Lennart Meri Tallinn Airport (EETN) |
Arrival
| Time | N/A |
|---|---|
| Airport | Manchester Airport (EGCC) |
| Time | Latitude | Longitude | Altitude | Speed | Heading |
|---|---|---|---|---|---|
| 2026-04-29 17:55 | 59.41568 | 24.80277 | 137 ft | 0 kts | 0° |
| 2026-04-29 18:05 | 59.41552 | 24.80276 | 137 ft | 4 kts | 18° |
| 2026-04-29 18:05 | 59.41532 | 24.80250 | 137 ft | 4 kts | 64° |
| 2026-04-29 18:05 | 59.41528 | 24.80219 | 137 ft | 0 kts | 90° |
| 2026-04-29 18:08 | 59.41528 | 24.80236 | 137 ft | 5 kts | 90° |
| 2026-04-29 18:09 | 59.41526 | 24.80332 | 137 ft | 8 kts | 91° |
| 2026-04-29 18:09 | 59.41520 | 24.80447 | 137 ft | 9 kts | 101° |
| 2026-04-29 18:09 | 59.41508 | 24.80576 | 137 ft | 12 kts | 96° |
| 2026-04-29 18:09 | 59.41505 | 24.80828 | 137 ft | 22 kts | 90° |
| 2026-04-29 18:10 | 59.41505 | 24.81134 | 138 ft | 22 kts | 88° |
| 2026-04-29 18:10 | 59.41503 | 24.81433 | 138 ft | 22 kts | 91° |
| 2026-04-29 18:10 | 59.41502 | 24.81722 | 138 ft | 21 kts | 90° |
| 2026-04-29 18:10 | 59.41502 | 24.82004 | 138 ft | 20 kts | 90° |
| 2026-04-29 18:11 | 59.41501 | 24.82274 | 138 ft | 20 kts | 89° |
| 2026-04-29 18:11 | 59.41502 | 24.82539 | 138 ft | 19 kts | 91° |
| 2026-04-29 18:11 | 59.41500 | 24.82795 | 139 ft | 18 kts | 91° |
| 2026-04-29 18:11 | 59.41500 | 24.83047 | 139 ft | 19 kts | 90° |
| 2026-04-29 18:12 | 59.41499 | 24.83340 | 139 ft | 24 kts | 90° |
| 2026-04-29 18:12 | 59.41498 | 24.83699 | 139 ft | 27 kts | 90° |
| 2026-04-29 18:12 | 59.41497 | 24.84060 | 139 ft | 26 kts | 90° |
| 2026-04-29 18:12 | 59.41496 | 24.84398 | 139 ft | 24 kts | 90° |
| 2026-04-29 18:13 | 59.41496 | 24.84714 | 140 ft | 23 kts | 90° |
| 2026-04-29 18:13 | 59.41479 | 24.84962 | 140 ft | 14 kts | 128° |
| 2026-04-29 18:13 | 59.41438 | 24.84999 | 140 ft | 1 kts | 171° |
| 2026-04-29 18:13 | 59.41429 | 24.85001 | 140 ft | 1 kts | 175° |
| 2026-04-29 18:14 | 59.41421 | 24.85002 | 140 ft | 1 kts | 177° |
| 2026-04-29 18:14 | 59.41386 | 24.85005 | 140 ft | 12 kts | 181° |
| 2026-04-29 18:14 | 59.41325 | 24.84914 | 140 ft | 9 kts | 257° |
| 2026-04-29 18:14 | 59.41323 | 24.84868 | 140 ft | 0 kts | 267° |
| 2026-04-29 18:15 | 59.41323 | 24.84865 | 140 ft | 5 kts | 267° |
| 2026-04-29 18:15 | 59.41326 | 24.84097 | 138 ft | 105 kts | 270° |
| 2026-04-29 18:15 | 59.41308 | 24.82127 | 260 ft | 175 kts | 269° |
| 2026-04-29 18:15 | 59.41273 | 24.79552 | 1100 ft | 195 kts | 270° |
| 2026-04-29 18:16 | 59.41148 | 24.76880 | 2275 ft | 196 kts | 259° |
| 2026-04-29 18:16 | 59.40768 | 24.74235 | 3085 ft | 210 kts | 259° |
| 2026-04-29 18:16 | 59.40349 | 24.71287 | 3284 ft | 243 kts | 261° |
| 2026-04-29 18:16 | 59.39935 | 24.67771 | 3364 ft | 283 kts | 262° |
| 2026-04-29 18:17 | 59.39479 | 24.64041 | 4511 ft | 277 kts | 261° |
| 2026-04-29 18:17 | 59.39025 | 24.60449 | 5834 ft | 265 kts | 262° |
| 2026-04-29 18:17 | 59.38589 | 24.56970 | 6944 ft | 263 kts | 263° |
| 2026-04-29 18:17 | 59.38152 | 24.53458 | 7821 ft | 267 kts | 263° |
| 2026-04-29 18:18 | 59.37711 | 24.49881 | 8665 ft | 272 kts | 263° |
| 2026-04-29 18:18 | 59.37275 | 24.46297 | 9496 ft | 276 kts | 263° |
| 2026-04-29 18:18 | 59.36825 | 24.42598 | 10235 ft | 285 kts | 263° |
| 2026-04-29 18:18 | 59.36350 | 24.38648 | 10509 ft | 310 kts | 263° |
| 2026-04-29 18:19 | 59.35842 | 24.34480 | 11144 ft | 319 kts | 263° |
| 2026-04-29 18:19 | 59.35314 | 24.30233 | 11973 ft | 321 kts | 264° |
| 2026-04-29 18:19 | 59.34798 | 24.25976 | 12838 ft | 322 kts | 264° |
| 2026-04-29 18:19 | 59.34271 | 24.21671 | 13550 ft | 328 kts | 265° |
| 2026-04-29 18:20 | 59.33726 | 24.17291 | 14303 ft | 332 kts | 265° |
| 2026-04-29 18:20 | 59.33174 | 24.12868 | 15061 ft | 336 kts | 265° |
| 2026-04-29 18:20 | 59.32618 | 24.08403 | 15756 ft | 340 kts | 266° |
| 2026-04-29 18:20 | 59.32053 | 24.03870 | 16447 ft | 344 kts | 266° |
| 2026-04-29 18:21 | 59.31482 | 23.99295 | 17151 ft | 348 kts | 266° |
| 2026-04-29 18:21 | 59.30903 | 23.94669 | 17756 ft | 353 kts | 266° |
| 2026-04-29 18:21 | 59.30312 | 23.89949 | 18372 ft | 358 kts | 267° |
| 2026-04-29 18:21 | 59.29713 | 23.85196 | 18998 ft | 362 kts | 266° |
| 2026-04-29 18:22 | 59.29104 | 23.80388 | 19587 ft | 367 kts | 266° |
| 2026-04-29 18:22 | 59.28485 | 23.75512 | 20179 ft | 371 kts | 266° |
| 2026-04-29 18:22 | 59.27859 | 23.70600 | 20743 ft | 375 kts | 266° |
| 2026-04-29 18:22 | 59.27222 | 23.65612 | 21243 ft | 381 kts | 266° |
| 2026-04-29 18:23 | 59.26575 | 23.60563 | 21784 ft | 384 kts | 266° |
| 2026-04-29 18:23 | 59.25920 | 23.55466 | 22305 ft | 388 kts | 266° |
| 2026-04-29 18:23 | 59.25256 | 23.50324 | 22810 ft | 393 kts | 266° |
| 2026-04-29 18:23 | 59.24586 | 23.45120 | 23304 ft | 396 kts | 266° |
| 2026-04-29 18:24 | 59.23923 | 23.39871 | 23778 ft | 400 kts | 266° |
| 2026-04-29 18:24 | 59.23258 | 23.34554 | 24200 ft | 405 kts | 266° |
| 2026-04-29 18:24 | 59.22587 | 23.29195 | 24632 ft | 409 kts | 266° |
| 2026-04-29 18:24 | 59.21906 | 23.23779 | 25092 ft | 412 kts | 266° |
| 2026-04-29 18:25 | 59.21215 | 23.18326 | 25530 ft | 415 kts | 266° |
| 2026-04-29 18:25 | 59.20517 | 23.12837 | 25935 ft | 419 kts | 266° |
| 2026-04-29 18:25 | 59.19818 | 23.07357 | 26317 ft | 423 kts | 266° |
| 2026-04-29 18:25 | 59.19090 | 23.01687 | 26721 ft | 426 kts | 265° |
| 2026-04-29 18:26 | 59.18365 | 22.96063 | 27118 ft | 429 kts | 265° |
| 2026-04-29 18:26 | 59.17632 | 22.90406 | 27497 ft | 433 kts | 265° |
| 2026-04-29 18:26 | 59.16900 | 22.84768 | 27834 ft | 436 kts | 265° |
| 2026-04-29 18:26 | 59.16149 | 22.79003 | 28183 ft | 440 kts | 265° |
| 2026-04-29 18:27 | 59.15391 | 22.73212 | 28524 ft | 443 kts | 265° |
| 2026-04-29 18:27 | 59.14623 | 22.67376 | 28870 ft | 446 kts | 265° |
| 2026-04-29 18:27 | 59.13851 | 22.61521 | 29187 ft | 449 kts | 264° |
| 2026-04-29 18:27 | 59.13069 | 22.55610 | 29471 ft | 453 kts | 264° |
| 2026-04-29 18:28 | 59.12278 | 22.49659 | 29785 ft | 455 kts | 264° |
| 2026-04-29 18:28 | 59.11479 | 22.43675 | 30088 ft | 458 kts | 264° |
| 2026-04-29 18:28 | 59.10673 | 22.37659 | 30373 ft | 461 kts | 264° |
| 2026-04-29 18:28 | 59.09862 | 22.31624 | 30673 ft | 463 kts | 264° |
| 2026-04-29 18:29 | 59.09041 | 22.25543 | 30936 ft | 466 kts | 264° |
| 2026-04-29 18:29 | 59.08495 | 22.21513 | 31117 ft | 467 kts | 264° |
| 2026-04-29 18:29 | 59.07380 | 22.13325 | 31483 ft | 469 kts | 264° |
| 2026-04-29 18:29 | 59.06541 | 22.07182 | 31758 ft | 471 kts | 264° |
| 2026-04-29 18:30 | 59.05695 | 22.01021 | 32083 ft | 471 kts | 264° |
| 2026-04-29 18:30 | 59.04847 | 21.94877 | 32461 ft | 470 kts | 263° |
| 2026-04-29 18:30 | 59.03998 | 21.88747 | 32773 ft | 470 kts | 263° |
| 2026-04-29 18:30 | 59.03146 | 21.82598 | 33010 ft | 472 kts | 263° |
| 2026-04-29 18:31 | 59.02289 | 21.76448 | 33324 ft | 472 kts | 263° |
| 2026-04-29 18:31 | 59.01721 | 21.72384 | 33571 ft | 471 kts | 263° |
| 2026-04-29 18:31 | 59.00864 | 21.66276 | 33922 ft | 470 kts | 263° |
| 2026-04-29 18:31 | 59.00003 | 21.60156 | 34125 ft | 472 kts | 263° |
| 2026-04-29 18:32 | 58.99135 | 21.54001 | 34380 ft | 472 kts | 263° |
| 2026-04-29 18:32 | 58.97394 | 21.41762 | 35065 ft | 469 kts | 263° |
| 2026-04-29 18:32 | 58.96525 | 21.35681 | 35339 ft | 469 kts | 262° |
| 2026-04-29 18:33 | 58.95650 | 21.29580 | 35571 ft | 469 kts | 262° |
| 2026-04-29 18:33 | 58.94776 | 21.23494 | 35769 ft | 470 kts | 262° |
| 2026-04-29 18:33 | 58.93893 | 21.17384 | 36035 ft | 470 kts | 262° |
| 2026-04-29 18:33 | 58.93012 | 21.11312 | 36333 ft | 469 kts | 262° |
| 2026-04-29 18:34 | 58.92130 | 21.05240 | 36574 ft | 468 kts | 262° |
| 2026-04-29 18:34 | 58.91544 | 21.01230 | 36705 ft | 469 kts | 262° |
| 2026-04-29 18:34 | 58.90323 | 20.93127 | 37066 ft | 470 kts | 258° |
| 2026-04-29 18:34 | 58.89128 | 20.87236 | 37408 ft | 471 kts | 254° |
| 2026-04-29 18:35 | 58.87809 | 20.81450 | 37719 ft | 469 kts | 253° |
| 2026-04-29 18:35 | 58.86474 | 20.75803 | 37944 ft | 468 kts | 252° |
| 2026-04-29 18:35 | 58.83747 | 20.64268 | 37942 ft | 473 kts | 252° |
| 2026-04-29 18:36 | 58.81050 | 20.52703 | 37932 ft | 471 kts | 253° |
| 2026-04-29 18:36 | 58.78367 | 20.41106 | 37932 ft | 469 kts | 253° |
| 2026-04-29 18:37 | 58.75713 | 20.29665 | 37946 ft | 467 kts | 252° |
| 2026-04-29 18:37 | 58.73078 | 20.18361 | 37954 ft | 466 kts | 252° |
| 2026-04-29 18:38 | 58.70413 | 20.06994 | 37958 ft | 466 kts | 252° |
| 2026-04-29 18:38 | 58.67738 | 19.95646 | 37961 ft | 467 kts | 252° |
| 2026-04-29 18:39 | 58.65038 | 19.84258 | 37978 ft | 470 kts | 252° |
| 2026-04-29 18:39 | 58.62314 | 19.72827 | 38008 ft | 472 kts | 251° |
| 2026-04-29 18:40 | 58.59567 | 19.61358 | 38019 ft | 474 kts | 251° |
| 2026-04-29 18:40 | 58.56792 | 19.49831 | 38013 ft | 477 kts | 251° |
| 2026-04-29 18:41 | 58.51172 | 19.26692 | 38017 ft | 480 kts | 251° |
| 2026-04-29 18:42 | 58.48342 | 19.15135 | 38019 ft | 479 kts | 251° |
| 2026-04-29 18:42 | 58.45532 | 19.03705 | 38009 ft | 478 kts | 250° |
| 2026-04-29 18:43 | 58.42701 | 18.92265 | 38016 ft | 476 kts | 250° |
| 2026-04-29 18:43 | 58.39867 | 18.80865 | 38007 ft | 474 kts | 250° |
| 2026-04-29 18:44 | 58.37035 | 18.69534 | 37994 ft | 473 kts | 250° |
| 2026-04-29 18:44 | 58.34206 | 18.58262 | 38026 ft | 471 kts | 250° |
| 2026-04-29 18:45 | 58.31369 | 18.47021 | 38037 ft | 471 kts | 249° |
| 2026-04-29 18:45 | 58.28523 | 18.35799 | 38042 ft | 471 kts | 249° |
| 2026-04-29 18:46 | 58.25662 | 18.24577 | 38053 ft | 472 kts | 249° |
| 2026-04-29 18:46 | 58.22788 | 18.13354 | 38050 ft | 474 kts | 249° |
| 2026-04-29 18:47 | 58.19894 | 18.02103 | 38048 ft | 475 kts | 249° |
| 2026-04-29 18:47 | 58.17643 | 17.90437 | 38055 ft | 470 kts | 259° |
| 2026-04-29 18:48 | 58.15774 | 17.78561 | 38049 ft | 472 kts | 259° |
| 2026-04-29 18:48 | 58.13881 | 17.66642 | 38045 ft | 473 kts | 258° |
| 2026-04-29 18:49 | 58.11931 | 17.54732 | 38049 ft | 475 kts | 258° |
| 2026-04-29 18:49 | 58.09943 | 17.42814 | 38054 ft | 475 kts | 258° |
| 2026-04-29 18:50 | 58.07942 | 17.30918 | 38055 ft | 475 kts | 258° |
| 2026-04-29 18:50 | 58.05932 | 17.19049 | 38052 ft | 474 kts | 257° |
| 2026-04-29 18:51 | 58.03915 | 17.07201 | 38056 ft | 474 kts | 257° |
| 2026-04-29 18:51 | 58.01890 | 16.95384 | 38052 ft | 473 kts | 257° |
| 2026-04-29 18:52 | 57.99859 | 16.83606 | 38058 ft | 472 kts | 257° |
| 2026-04-29 18:52 | 57.97816 | 16.71836 | 38067 ft | 472 kts | 256° |
| 2026-04-29 18:53 | 57.95763 | 16.60082 | 38081 ft | 473 kts | 256° |
| 2026-04-29 18:53 | 57.93694 | 16.48308 | 38081 ft | 475 kts | 256° |
| 2026-04-29 18:54 | 57.91602 | 16.36490 | 38078 ft | 477 kts | 256° |
| 2026-04-29 18:54 | 57.89490 | 16.24623 | 38079 ft | 479 kts | 256° |
| 2026-04-29 18:55 | 57.87362 | 16.12756 | 38084 ft | 480 kts | 256° |
| 2026-04-29 18:55 | 57.85216 | 16.00869 | 38102 ft | 481 kts | 255° |
| 2026-04-29 18:56 | 57.83054 | 15.88962 | 38106 ft | 482 kts | 255° |
| 2026-04-29 18:56 | 57.80882 | 15.77073 | 38100 ft | 482 kts | 255° |
| 2026-04-29 18:57 | 57.78696 | 15.65183 | 38105 ft | 482 kts | 255° |
| 2026-04-29 18:57 | 57.76517 | 15.53409 | 38110 ft | 482 kts | 255° |
| 2026-04-29 18:58 | 57.74316 | 15.41576 | 38119 ft | 481 kts | 254° |
| 2026-04-29 18:58 | 57.72107 | 15.29781 | 38129 ft | 480 kts | 254° |
| 2026-04-29 18:59 | 57.69889 | 15.18022 | 38128 ft | 479 kts | 254° |
| 2026-04-29 18:59 | 57.67662 | 15.06280 | 38133 ft | 479 kts | 253° |
| 2026-04-29 19:00 | 57.65421 | 14.94529 | 38142 ft | 478 kts | 253° |
| 2026-04-29 19:00 | 57.63188 | 14.82898 | 38147 ft | 478 kts | 253° |
| 2026-04-29 19:01 | 57.60928 | 14.71199 | 38144 ft | 479 kts | 253° |
| 2026-04-29 19:01 | 57.58659 | 14.59519 | 38154 ft | 480 kts | 252° |
| 2026-04-29 19:02 | 57.56747 | 14.49724 | 38148 ft | 480 kts | 252° |
| 2026-04-29 19:02 | 57.54077 | 14.36143 | 38157 ft | 481 kts | 252° |
| 2026-04-29 19:03 | 57.51767 | 14.24466 | 38159 ft | 481 kts | 252° |
| 2026-04-29 19:03 | 57.49445 | 14.12793 | 38155 ft | 482 kts | 252° |
| 2026-04-29 19:04 | 57.47106 | 14.01109 | 38156 ft | 482 kts | 252° |
| 2026-04-29 19:04 | 57.44743 | 13.89365 | 38154 ft | 483 kts | 251° |
| 2026-04-29 19:05 | 57.42392 | 13.77755 | 38158 ft | 483 kts | 251° |
| 2026-04-29 19:05 | 57.40016 | 13.66099 | 38162 ft | 483 kts | 251° |
| 2026-04-29 19:06 | 57.37634 | 13.54462 | 38168 ft | 483 kts | 251° |
| 2026-04-29 19:07 | 57.34032 | 13.37018 | 38170 ft | 483 kts | 251° |
| 2026-04-29 19:07 | 57.31623 | 13.25425 | 38170 ft | 482 kts | 250° |
| 2026-04-29 19:08 | 57.29207 | 13.13866 | 38178 ft | 482 kts | 250° |
| 2026-04-29 19:08 | 57.26780 | 13.02323 | 38185 ft | 481 kts | 250° |
| 2026-04-29 19:09 | 57.24347 | 12.90815 | 38199 ft | 481 kts | 249° |
| 2026-04-29 19:09 | 57.21906 | 12.79337 | 38202 ft | 480 kts | 249° |
| 2026-04-29 19:10 | 57.19454 | 12.67868 | 38208 ft | 480 kts | 249° |
| 2026-04-29 19:10 | 57.16995 | 12.56433 | 38229 ft | 479 kts | 249° |
| 2026-04-29 19:11 | 57.14531 | 12.45037 | 38228 ft | 479 kts | 249° |
| 2026-04-29 19:11 | 57.12068 | 12.33704 | 38237 ft | 480 kts | 249° |
| 2026-04-29 19:12 | 57.09568 | 12.22255 | 38234 ft | 479 kts | 249° |
| 2026-04-29 19:12 | 57.07070 | 12.10890 | 38247 ft | 480 kts | 248° |
| 2026-04-29 19:13 | 57.04559 | 11.99523 | 38248 ft | 480 kts | 248° |
| 2026-04-29 19:13 | 57.01809 | 11.88460 | 38252 ft | 480 kts | 243° |
| 2026-04-29 19:14 | 56.98807 | 11.77532 | 38246 ft | 480 kts | 243° |
| 2026-04-29 19:14 | 56.95790 | 11.66609 | 38249 ft | 480 kts | 243° |
| 2026-04-29 19:15 | 56.92807 | 11.55705 | 38251 ft | 479 kts | 243° |
| 2026-04-29 19:15 | 56.89828 | 11.44788 | 38253 ft | 479 kts | 243° |
| 2026-04-29 19:16 | 56.86847 | 11.33903 | 38261 ft | 478 kts | 243° |
| 2026-04-29 19:16 | 56.84362 | 11.24876 | 38256 ft | 478 kts | 243° |
| 2026-04-29 19:17 | 56.81365 | 11.14040 | 38259 ft | 477 kts | 242° |
| 2026-04-29 19:17 | 56.78365 | 11.03248 | 38267 ft | 477 kts | 242° |
| 2026-04-29 19:18 | 56.75355 | 10.92464 | 38265 ft | 477 kts | 242° |
| 2026-04-29 19:18 | 56.72342 | 10.81722 | 38268 ft | 476 kts | 242° |
| 2026-04-29 19:19 | 56.69321 | 10.71003 | 38267 ft | 477 kts | 242° |
| 2026-04-29 19:19 | 56.66286 | 10.60288 | 38269 ft | 476 kts | 242° |
| 2026-04-29 19:20 | 56.63242 | 10.49594 | 38272 ft | 476 kts | 242° |
| 2026-04-29 19:20 | 56.60203 | 10.38933 | 38272 ft | 475 kts | 241° |
| 2026-04-29 19:21 | 56.57152 | 10.28327 | 38273 ft | 475 kts | 241° |
| 2026-04-29 19:21 | 56.54097 | 10.17730 | 38277 ft | 474 kts | 241° |
| 2026-04-29 19:22 | 56.51037 | 10.07161 | 38285 ft | 473 kts | 241° |
| 2026-04-29 19:22 | 56.47987 | 9.96688 | 38296 ft | 474 kts | 240° |
| 2026-04-29 19:23 | 56.44907 | 9.86155 | 38298 ft | 473 kts | 240° |
| 2026-04-29 19:23 | 56.41827 | 9.75664 | 38305 ft | 473 kts | 240° |
| 2026-04-29 19:24 | 56.38731 | 9.65162 | 38302 ft | 473 kts | 240° |
| 2026-04-29 19:24 | 56.35617 | 9.54709 | 38314 ft | 473 kts | 240° |
| 2026-04-29 19:25 | 56.32486 | 9.44185 | 38312 ft | 474 kts | 240° |
| 2026-04-29 19:25 | 56.29386 | 9.33807 | 38317 ft | 474 kts | 240° |
| 2026-04-29 19:26 | 56.26255 | 9.23376 | 38327 ft | 474 kts | 239° |
| 2026-04-29 19:26 | 56.23106 | 9.12946 | 38320 ft | 474 kts | 239° |
| 2026-04-29 19:27 | 56.19957 | 9.02545 | 38321 ft | 474 kts | 239° |
| 2026-04-29 19:27 | 56.16797 | 8.92149 | 38326 ft | 474 kts | 239° |
| 2026-04-29 19:28 | 56.13626 | 8.81772 | 38326 ft | 474 kts | 239° |
| 2026-04-29 19:28 | 56.10446 | 8.71412 | 38320 ft | 474 kts | 239° |
| 2026-04-29 19:29 | 56.07259 | 8.61073 | 38321 ft | 474 kts | 239° |
| 2026-04-29 19:29 | 56.04070 | 8.50760 | 38323 ft | 474 kts | 239° |
| 2026-04-29 19:30 | 56.00868 | 8.40444 | 38326 ft | 474 kts | 239° |
| 2026-04-29 19:30 | 55.97737 | 8.30087 | 38332 ft | 475 kts | 241° |
| 2026-04-29 19:31 | 55.94828 | 8.19511 | 38333 ft | 474 kts | 242° |
| 2026-04-29 19:31 | 55.91954 | 8.08916 | 38339 ft | 474 kts | 242° |
| 2026-04-29 19:32 | 55.89053 | 7.98371 | 38340 ft | 474 kts | 242° |
| 2026-04-29 19:32 | 55.86130 | 7.87850 | 38349 ft | 474 kts | 242° |
| 2026-04-29 19:33 | 55.83193 | 7.77359 | 38360 ft | 473 kts | 242° |
| 2026-04-29 19:33 | 55.80252 | 7.66897 | 38361 ft | 473 kts | 242° |
| 2026-04-29 19:34 | 55.77296 | 7.56439 | 38370 ft | 473 kts | 242° |
| 2026-04-29 19:34 | 55.74338 | 7.46018 | 38364 ft | 473 kts | 242° |
| 2026-04-29 19:35 | 55.71372 | 7.35606 | 38370 ft | 473 kts | 241° |
| 2026-04-29 19:35 | 55.68392 | 7.25202 | 38374 ft | 473 kts | 241° |
| 2026-04-29 19:36 | 55.65403 | 7.14806 | 38375 ft | 473 kts | 241° |
| 2026-04-29 19:36 | 55.62416 | 7.04467 | 38378 ft | 471 kts | 241° |
| 2026-04-29 19:37 | 55.59443 | 6.94219 | 38375 ft | 471 kts | 241° |
| 2026-04-29 19:37 | 55.56442 | 6.83928 | 38379 ft | 470 kts | 241° |
| 2026-04-29 19:38 | 55.53443 | 6.73671 | 38390 ft | 470 kts | 241° |
| 2026-04-29 19:38 | 55.50432 | 6.63437 | 38400 ft | 470 kts | 241° |
| 2026-04-29 19:39 | 55.47417 | 6.53230 | 38408 ft | 469 kts | 240° |
| 2026-04-29 19:39 | 55.44393 | 6.43039 | 38403 ft | 469 kts | 240° |
| 2026-04-29 19:40 | 55.41366 | 6.32888 | 38405 ft | 468 kts | 240° |
| 2026-04-29 19:40 | 55.38339 | 6.22761 | 38422 ft | 467 kts | 240° |
| 2026-04-29 19:41 | 55.35303 | 6.12662 | 38428 ft | 467 kts | 240° |
| 2026-04-29 19:41 | 55.32265 | 6.02583 | 38437 ft | 468 kts | 240° |
| 2026-04-29 19:42 | 55.29210 | 5.92499 | 38445 ft | 468 kts | 240° |
| 2026-04-29 19:42 | 55.26140 | 5.82408 | 38443 ft | 469 kts | 240° |
| 2026-04-29 19:43 | 55.23061 | 5.72343 | 38442 ft | 469 kts | 240° |
| 2026-04-29 19:43 | 55.19973 | 5.62279 | 38441 ft | 469 kts | 240° |
| 2026-04-29 19:44 | 55.16881 | 5.52258 | 38450 ft | 468 kts | 240° |
| 2026-04-29 19:44 | 55.13789 | 5.42262 | 38451 ft | 467 kts | 240° |
| 2026-04-29 19:45 | 55.10699 | 5.32317 | 38446 ft | 466 kts | 240° |
| 2026-04-29 19:45 | 55.07602 | 5.22396 | 38453 ft | 464 kts | 240° |
| 2026-04-29 19:46 | 55.04510 | 5.12533 | 38450 ft | 463 kts | 240° |
| 2026-04-29 19:46 | 55.01434 | 5.02756 | 38449 ft | 462 kts | 240° |
| 2026-04-29 19:47 | 54.98336 | 4.92953 | 38456 ft | 462 kts | 240° |
| 2026-04-29 19:47 | 54.95240 | 4.83189 | 38461 ft | 460 kts | 240° |
| 2026-04-29 19:48 | 54.92140 | 4.73462 | 38455 ft | 459 kts | 240° |
| 2026-04-29 19:48 | 54.89043 | 4.63773 | 38460 ft | 458 kts | 240° |
| 2026-04-29 19:49 | 54.85945 | 4.54122 | 38457 ft | 457 kts | 240° |
| 2026-04-29 19:49 | 54.82842 | 4.44500 | 38460 ft | 457 kts | 240° |
| 2026-04-29 19:50 | 54.79733 | 4.34896 | 38460 ft | 456 kts | 240° |
| 2026-04-29 19:50 | 54.76623 | 4.25327 | 38459 ft | 456 kts | 240° |
| 2026-04-29 19:51 | 54.73479 | 4.15691 | 38462 ft | 456 kts | 240° |
| 2026-04-29 19:51 | 54.70374 | 4.06210 | 38458 ft | 456 kts | 240° |
| 2026-04-29 19:52 | 54.67242 | 3.96687 | 38459 ft | 456 kts | 240° |
| 2026-04-29 19:52 | 54.64100 | 3.87167 | 38466 ft | 456 kts | 240° |
| 2026-04-29 19:53 | 54.60959 | 3.77685 | 38455 ft | 454 kts | 240° |
| 2026-04-29 19:53 | 54.57818 | 3.68244 | 38457 ft | 454 kts | 240° |
| 2026-04-29 19:54 | 54.53100 | 3.54136 | 38458 ft | 453 kts | 240° |
| 2026-04-29 19:54 | 54.49951 | 3.44760 | 38447 ft | 452 kts | 240° |
| 2026-04-29 19:55 | 54.46799 | 3.35412 | 38454 ft | 451 kts | 240° |
| 2026-04-29 19:55 | 54.43644 | 3.26086 | 38449 ft | 451 kts | 239° |
| 2026-04-29 19:56 | 54.40487 | 3.16788 | 38455 ft | 450 kts | 239° |
| 2026-04-29 19:56 | 54.37327 | 3.07516 | 38463 ft | 450 kts | 239° |
| 2026-04-29 19:57 | 54.34695 | 2.99812 | 38458 ft | 450 kts | 239° |
| 2026-04-29 19:57 | 54.31141 | 2.88860 | 38462 ft | 450 kts | 245° |
| 2026-04-29 19:58 | 54.28563 | 2.79111 | 38458 ft | 449 kts | 246° |
| 2026-04-29 19:58 | 54.26032 | 2.69331 | 38463 ft | 449 kts | 246° |
| 2026-04-29 19:59 | 54.23462 | 2.59604 | 38459 ft | 449 kts | 246° |
| 2026-04-29 19:59 | 54.20865 | 2.49924 | 38457 ft | 448 kts | 246° |
| 2026-04-29 20:00 | 54.18695 | 2.41895 | 38458 ft | 447 kts | 246° |
| 2026-04-29 20:00 | 54.16085 | 2.32272 | 38460 ft | 446 kts | 246° |
| 2026-04-29 20:01 | 54.13468 | 2.22670 | 38449 ft | 446 kts | 246° |
| 2026-04-29 20:01 | 54.10851 | 2.13112 | 38448 ft | 444 kts | 246° |
| 2026-04-29 20:02 | 54.08235 | 2.03586 | 38448 ft | 444 kts | 245° |
| 2026-04-29 20:02 | 54.06053 | 1.95672 | 38452 ft | 443 kts | 245° |
| 2026-04-29 20:03 | 54.02986 | 1.84585 | 38449 ft | 443 kts | 245° |
| 2026-04-29 20:03 | 54.00370 | 1.75179 | 38448 ft | 442 kts | 245° |
| 2026-04-29 20:04 | 53.97734 | 1.65734 | 38451 ft | 442 kts | 245° |
| 2026-04-29 20:04 | 53.95093 | 1.56312 | 38453 ft | 442 kts | 245° |
| 2026-04-29 20:05 | 53.92441 | 1.46886 | 38454 ft | 443 kts | 245° |
| 2026-04-29 20:05 | 53.89781 | 1.37473 | 38449 ft | 442 kts | 245° |
| 2026-04-29 20:06 | 53.87119 | 1.28092 | 38450 ft | 441 kts | 245° |
| 2026-04-29 20:06 | 53.84453 | 1.18734 | 38443 ft | 441 kts | 245° |
| 2026-04-29 20:07 | 53.81783 | 1.09395 | 38316 ft | 442 kts | 245° |
| 2026-04-29 20:07 | 53.80435 | 1.04696 | 37906 ft | 443 kts | 245° |
| 2026-04-29 20:07 | 53.79102 | 1.00041 | 37518 ft | 437 kts | 246° |
| 2026-04-29 20:08 | 53.77782 | 0.95427 | 37120 ft | 433 kts | 245° |
| 2026-04-29 20:08 | 53.76906 | 0.92413 | 36861 ft | 430 kts | 245° |
| 2026-04-29 20:08 | 53.75157 | 0.86387 | 36350 ft | 424 kts | 245° |
| 2026-04-29 20:08 | 53.73875 | 0.81967 | 35948 ft | 421 kts | 245° |
| 2026-04-29 20:09 | 53.72581 | 0.77509 | 35547 ft | 418 kts | 245° |
| 2026-04-29 20:09 | 53.71308 | 0.73129 | 35154 ft | 414 kts | 245° |
| 2026-04-29 20:09 | 53.70041 | 0.68777 | 34772 ft | 411 kts | 245° |
| 2026-04-29 20:09 | 53.68787 | 0.64476 | 34390 ft | 407 kts | 245° |
| 2026-04-29 20:10 | 53.67537 | 0.60198 | 34008 ft | 404 kts | 245° |
| 2026-04-29 20:10 | 53.66301 | 0.55978 | 33632 ft | 401 kts | 245° |
| 2026-04-29 20:10 | 53.65069 | 0.51777 | 33251 ft | 397 kts | 245° |
| 2026-04-29 20:10 | 53.63848 | 0.47622 | 32880 ft | 394 kts | 245° |
| 2026-04-29 20:11 | 53.62632 | 0.43492 | 32509 ft | 392 kts | 245° |
| 2026-04-29 20:11 | 53.61429 | 0.39410 | 32141 ft | 389 kts | 244° |
| 2026-04-29 20:11 | 53.60230 | 0.35348 | 31782 ft | 386 kts | 244° |
| 2026-04-29 20:11 | 53.59043 | 0.31328 | 31415 ft | 383 kts | 244° |
| 2026-04-29 20:12 | 53.57858 | 0.27326 | 31064 ft | 380 kts | 244° |
| 2026-04-29 20:12 | 53.56684 | 0.23361 | 30701 ft | 377 kts | 244° |
| 2026-04-29 20:12 | 53.55531 | 0.19409 | 30344 ft | 374 kts | 244° |
| 2026-04-29 20:12 | 53.54375 | 0.15506 | 29983 ft | 371 kts | 243° |
| 2026-04-29 20:13 | 53.53233 | 0.11695 | 29614 ft | 368 kts | 247° |
| 2026-04-29 20:13 | 53.52656 | 0.07544 | 29189 ft | 366 kts | 269° |
| 2026-04-29 20:13 | 53.52833 | 0.03288 | 28814 ft | 365 kts | 276° |
| 2026-04-29 20:13 | 53.53154 | -0.00934 | 28375 ft | 366 kts | 277° |
| 2026-04-29 20:14 | 53.53501 | -0.05183 | 27938 ft | 366 kts | 276° |
| 2026-04-29 20:14 | 53.53844 | -0.09418 | 27509 ft | 364 kts | 275° |
| 2026-04-29 20:14 | 53.54176 | -0.13627 | 27078 ft | 362 kts | 276° |
| 2026-04-29 20:14 | 53.54515 | -0.17799 | 26641 ft | 359 kts | 276° |
| 2026-04-29 20:15 | 53.54770 | -0.21967 | 26202 ft | 357 kts | 278° |
| 2026-04-29 20:15 | 53.55082 | -0.26089 | 25782 ft | 354 kts | 279° |
| 2026-04-29 20:15 | 53.55394 | -0.30181 | 25360 ft | 352 kts | 279° |
| 2026-04-29 20:15 | 53.55694 | -0.34253 | 24950 ft | 350 kts | 278° |
| 2026-04-29 20:16 | 53.55989 | -0.38313 | 24536 ft | 348 kts | 278° |
| 2026-04-29 20:16 | 53.56278 | -0.42335 | 24127 ft | 346 kts | 278° |
| 2026-04-29 20:16 | 53.56565 | -0.46352 | 23720 ft | 344 kts | 278° |
| 2026-04-29 20:16 | 53.56847 | -0.50333 | 23309 ft | 343 kts | 278° |
| 2026-04-29 20:17 | 53.57129 | -0.54313 | 22902 ft | 341 kts | 277° |
| 2026-04-29 20:17 | 53.57403 | -0.58254 | 22503 ft | 339 kts | 278° |
| 2026-04-29 20:17 | 53.57694 | -0.62192 | 22097 ft | 338 kts | 277° |
| 2026-04-29 20:17 | 53.57983 | -0.66100 | 21701 ft | 336 kts | 278° |
| 2026-04-29 20:18 | 53.58280 | -0.69992 | 21301 ft | 335 kts | 277° |
| 2026-04-29 20:18 | 53.58539 | -0.73880 | 20903 ft | 334 kts | 276° |
| 2026-04-29 20:18 | 53.58771 | -0.77756 | 20516 ft | 332 kts | 274° |
| 2026-04-29 20:18 | 53.58972 | -0.81619 | 20121 ft | 331 kts | 275° |
| 2026-04-29 20:19 | 53.59236 | -0.85457 | 19733 ft | 330 kts | 276° |
| 2026-04-29 20:19 | 53.59513 | -0.89295 | 19334 ft | 329 kts | 275° |
| 2026-04-29 20:19 | 53.59780 | -0.93119 | 18952 ft | 328 kts | 276° |
| 2026-04-29 20:19 | 53.60081 | -0.96918 | 18561 ft | 328 kts | 276° |
| 2026-04-29 20:20 | 53.60351 | -1.00718 | 18172 ft | 326 kts | 273° |
| 2026-04-29 20:20 | 53.60574 | -1.04521 | 17789 ft | 325 kts | 273° |
| 2026-04-29 20:20 | 53.60810 | -1.08311 | 17428 ft | 325 kts | 274° |